sensor_id;sensor_type;location;lat;lon;timestamp;P1;durP1;ratioP1;P2;durP2;ratioP2
77880;SDS011;67077;50.298;18.996;2024-03-17T00:01:42;9.10;;;5.10;;
77880;SDS011;67077;50.298;18.996;2024-03-17T00:04:09;8.70;;;4.80;;
77880;SDS011;67077;50.298;18.996;2024-03-17T00:06:37;8.00;;;4.90;;
77880;SDS011;67077;50.298;18.996;2024-03-17T00:09:04;9.30;;;5.50;;
77880;SDS011;67077;50.298;18.996;2024-03-17T00:11:33;7.50;;;5.00;;
77880;SDS011;67077;50.298;18.996;2024-03-17T00:14:02;9.20;;;5.20;;
77880;SDS011;67077;50.298;18.996;2024-03-17T00:16:30;10.30;;;5.10;;
77880;SDS011;67077;50.298;18.996;2024-03-17T00:18:57;10.50;;;5.50;;
77880;SDS011;67077;50.298;18.996;2024-03-17T00:21:25;8.60;;;5.40;;
77880;SDS011;67077;50.298;18.996;2024-03-17T00:23:53;8.70;;;5.10;;
77880;SDS011;67077;50.298;18.996;2024-03-17T00:26:21;8.20;;;5.10;;
77880;SDS011;67077;50.298;18.996;2024-03-17T00:28:49;9.30;;;5.90;;
77880;SDS011;67077;50.298;18.996;2024-03-17T00:31:18;9.30;;;5.60;;
77880;SDS011;67077;50.298;18.996;2024-03-17T00:33:46;12.90;;;8.10;;
77880;SDS011;67077;50.298;18.996;2024-03-17T00:36:13;9.10;;;5.20;;
77880;SDS011;67077;50.298;18.996;2024-03-17T00:38:42;8.70;;;5.30;;
77880;SDS011;67077;50.298;18.996;2024-03-17T00:41:09;9.50;;;4.50;;
77880;SDS011;67077;50.298;18.996;2024-03-17T00:43:37;11.70;;;5.40;;
77880;SDS011;67077;50.298;18.996;2024-03-17T00:46:04;12.50;;;5.10;;
77880;SDS011;67077;50.298;18.996;2024-03-17T00:48:32;11.70;;;5.40;;
77880;SDS011;67077;50.298;18.996;2024-03-17T00:50:59;11.20;;;6.10;;
77880;SDS011;67077;50.298;18.996;2024-03-17T00:53:27;13.90;;;5.80;;
77880;SDS011;67077;50.298;18.996;2024-03-17T00:55:56;11.90;;;5.70;;
77880;SDS011;67077;50.298;18.996;2024-03-17T00:58:28;9.00;;;5.60;;
77880;SDS011;67077;50.298;18.996;2024-03-17T01:00:56;12.80;;;6.70;;
77880;SDS011;67077;50.298;18.996;2024-03-17T01:03:23;14.60;;;6.40;;
77880;SDS011;67077;50.298;18.996;2024-03-17T01:05:51;12.20;;;5.60;;
77880;SDS011;67077;50.298;18.996;2024-03-17T01:08:20;12.80;;;5.70;;
77880;SDS011;67077;50.298;18.996;2024-03-17T01:10:48;16.00;;;6.00;;
77880;SDS011;67077;50.298;18.996;2024-03-17T01:13:17;10.20;;;5.00;;
77880;SDS011;67077;50.298;18.996;2024-03-17T01:15:45;10.70;;;5.40;;
77880;SDS011;67077;50.298;18.996;2024-03-17T01:18:12;14.60;;;5.80;;
77880;SDS011;67077;50.298;18.996;2024-03-17T01:20:40;15.50;;;6.90;;
77880;SDS011;67077;50.298;18.996;2024-03-17T01:23:08;14.40;;;6.70;;
77880;SDS011;67077;50.298;18.996;2024-03-17T01:25:36;13.30;;;5.50;;
77880;SDS011;67077;50.298;18.996;2024-03-17T01:28:04;11.60;;;5.50;;
77880;SDS011;67077;50.298;18.996;2024-03-17T01:30:32;12.80;;;5.70;;
77880;SDS011;67077;50.298;18.996;2024-03-17T01:33:01;13.40;;;6.00;;
77880;SDS011;67077;50.298;18.996;2024-03-17T01:35:29;15.70;;;6.70;;
77880;SDS011;67077;50.298;18.996;2024-03-17T01:37:56;17.40;;;7.40;;
77880;SDS011;67077;50.298;18.996;2024-03-17T01:40:24;13.30;;;7.10;;
77880;SDS011;67077;50.298;18.996;2024-03-17T01:42:51;17.90;;;6.90;;
77880;SDS011;67077;50.298;18.996;2024-03-17T01:45:29;12.60;;;6.10;;
77880;SDS011;67077;50.298;18.996;2024-03-17T01:47:59;12.60;;;6.40;;
77880;SDS011;67077;50.298;18.996;2024-03-17T01:50:31;14.30;;;7.00;;
77880;SDS011;67077;50.298;18.996;2024-03-17T01:53:03;13.60;;;6.90;;
77880;SDS011;67077;50.298;18.996;2024-03-17T01:55:33;11.80;;;7.00;;
77880;SDS011;67077;50.298;18.996;2024-03-17T01:58:04;16.00;;;6.90;;
77880;SDS011;67077;50.298;18.996;2024-03-17T02:00:36;12.80;;;5.60;;
77880;SDS011;67077;50.298;18.996;2024-03-17T02:03:05;14.70;;;7.30;;
77880;SDS011;67077;50.298;18.996;2024-03-17T02:05:36;18.80;;;10.50;;
77880;SDS011;67077;50.298;18.996;2024-03-17T02:08:06;17.40;;;8.60;;
77880;SDS011;67077;50.298;18.996;2024-03-17T02:10:34;21.80;;;12.90;;
77880;SDS011;67077;50.298;18.996;2024-03-17T02:13:02;28.40;;;18.40;;
77880;SDS011;67077;50.298;18.996;2024-03-17T02:15:31;19.80;;;10.80;;
77880;SDS011;67077;50.298;18.996;2024-03-17T02:18:01;29.10;;;16.50;;
77880;SDS011;67077;50.298;18.996;2024-03-17T02:20:29;23.60;;;14.70;;
77880;SDS011;67077;50.298;18.996;2024-03-17T02:23:15;19.10;;;11.60;;
77880;SDS011;67077;50.298;18.996;2024-03-17T02:25:43;22.90;;;13.00;;
77880;SDS011;67077;50.298;18.996;2024-03-17T02:28:13;20.10;;;12.20;;
77880;SDS011;67077;50.298;18.996;2024-03-17T02:30:40;24.40;;;14.40;;
77880;SDS011;67077;50.298;18.996;2024-03-17T02:33:09;27.10;;;16.10;;
77880;SDS011;67077;50.298;18.996;2024-03-17T02:35:36;27.80;;;14.90;;
77880;SDS011;67077;50.298;18.996;2024-03-17T02:38:04;29.90;;;17.30;;
77880;SDS011;67077;50.298;18.996;2024-03-17T02:40:32;45.80;;;29.10;;
77880;SDS011;67077;50.298;18.996;2024-03-17T02:42:59;40.30;;;24.10;;
77880;SDS011;67077;50.298;18.996;2024-03-17T02:45:27;30.30;;;15.00;;
77880;SDS011;67077;50.298;18.996;2024-03-17T02:47:54;31.10;;;16.20;;
77880;SDS011;67077;50.298;18.996;2024-03-17T02:50:22;26.50;;;13.40;;
77880;SDS011;67077;50.298;18.996;2024-03-17T02:52:49;34.50;;;25.30;;
77880;SDS011;67077;50.298;18.996;2024-03-17T02:55:17;27.20;;;18.70;;
77880;SDS011;67077;50.298;18.996;2024-03-17T02:57:44;42.00;;;24.80;;
77880;SDS011;67077;50.298;18.996;2024-03-17T03:00:12;36.00;;;24.60;;
77880;SDS011;67077;50.298;18.996;2024-03-17T03:02:40;37.20;;;23.80;;
77880;SDS011;67077;50.298;18.996;2024-03-17T03:05:07;34.80;;;23.50;;
77880;SDS011;67077;50.298;18.996;2024-03-17T03:07:35;36.20;;;23.20;;
77880;SDS011;67077;50.298;18.996;2024-03-17T03:10:03;34.40;;;23.10;;
77880;SDS011;67077;50.298;18.996;2024-03-17T03:12:31;34.20;;;22.60;;
77880;SDS011;67077;50.298;18.996;2024-03-17T03:14:59;37.60;;;22.80;;
77880;SDS011;67077;50.298;18.996;2024-03-17T03:17:26;29.90;;;18.90;;
77880;SDS011;67077;50.298;18.996;2024-03-17T03:19:54;31.10;;;17.60;;
77880;SDS011;67077;50.298;18.996;2024-03-17T03:22:22;33.00;;;19.40;;
77880;SDS011;67077;50.298;18.996;2024-03-17T03:24:51;32.20;;;20.20;;
77880;SDS011;67077;50.298;18.996;2024-03-17T03:27:20;28.80;;;15.40;;
77880;SDS011;67077;50.298;18.996;2024-03-17T03:29:47;26.20;;;14.50;;
77880;SDS011;67077;50.298;18.996;2024-03-17T03:32:15;28.00;;;16.50;;
77880;SDS011;67077;50.298;18.996;2024-03-17T03:34:44;42.30;;;25.20;;
77880;SDS011;67077;50.298;18.996;2024-03-17T03:37:12;22.60;;;13.90;;
77880;SDS011;67077;50.298;18.996;2024-03-17T03:39:40;22.60;;;12.40;;
77880;SDS011;67077;50.298;18.996;2024-03-17T03:42:07;17.50;;;9.30;;
77880;SDS011;67077;50.298;18.996;2024-03-17T03:44:35;24.70;;;16.20;;
77880;SDS011;67077;50.298;18.996;2024-03-17T03:47:02;25.60;;;13.30;;
77880;SDS011;67077;50.298;18.996;2024-03-17T03:49:30;19.50;;;10.20;;
77880;SDS011;67077;50.298;18.996;2024-03-17T03:51:57;36.60;;;20.80;;
77880;SDS011;67077;50.298;18.996;2024-03-17T03:54:26;36.80;;;22.70;;
77880;SDS011;67077;50.298;18.996;2024-03-17T03:56:53;35.00;;;22.80;;
77880;SDS011;67077;50.298;18.996;2024-03-17T03:59:21;34.30;;;18.40;;
77880;SDS011;67077;50.298;18.996;2024-03-17T04:01:48;30.80;;;18.40;;
77880;SDS011;67077;50.298;18.996;2024-03-17T04:04:16;26.60;;;15.80;;
77880;SDS011;67077;50.298;18.996;2024-03-17T04:06:44;22.90;;;15.90;;
77880;SDS011;67077;50.298;18.996;2024-03-17T04:09:11;28.00;;;15.20;;
77880;SDS011;67077;50.298;18.996;2024-03-17T04:11:39;17.80;;;9.10;;
77880;SDS011;67077;50.298;18.996;2024-03-17T04:14:06;36.20;;;21.30;;
77880;SDS011;67077;50.298;18.996;2024-03-17T04:16:34;39.30;;;23.10;;
77880;SDS011;67077;50.298;18.996;2024-03-17T04:19:02;28.80;;;17.80;;
77880;SDS011;67077;50.298;18.996;2024-03-17T04:21:30;25.20;;;15.50;;
77880;SDS011;67077;50.298;18.996;2024-03-17T04:23:57;22.10;;;12.80;;
77880;SDS011;67077;50.298;18.996;2024-03-17T04:26:25;26.70;;;12.70;;
77880;SDS011;67077;50.298;18.996;2024-03-17T04:28:52;28.90;;;14.80;;
77880;SDS011;67077;50.298;18.996;2024-03-17T04:31:20;26.10;;;13.00;;
77880;SDS011;67077;50.298;18.996;2024-03-17T04:33:47;26.40;;;11.60;;
77880;SDS011;67077;50.298;18.996;2024-03-17T04:36:15;22.50;;;10.60;;
77880;SDS011;67077;50.298;18.996;2024-03-17T04:38:42;22.50;;;12.50;;
77880;SDS011;67077;50.298;18.996;2024-03-17T04:41:10;30.30;;;16.70;;
77880;SDS011;67077;50.298;18.996;2024-03-17T04:43:37;32.40;;;19.30;;
77880;SDS011;67077;50.298;18.996;2024-03-17T04:46:05;29.50;;;17.50;;
77880;SDS011;67077;50.298;18.996;2024-03-17T04:48:34;22.90;;;12.10;;
77880;SDS011;67077;50.298;18.996;2024-03-17T04:51:02;34.20;;;16.60;;
77880;SDS011;67077;50.298;18.996;2024-03-17T04:53:30;27.60;;;14.00;;
77880;SDS011;67077;50.298;18.996;2024-03-17T04:56:01;18.90;;;6.50;;
77880;SDS011;67077;50.298;18.996;2024-03-17T04:58:32;15.90;;;5.40;;
77880;SDS011;67077;50.298;18.996;2024-03-17T05:01:07;12.10;;;4.70;;
77880;SDS011;67077;50.298;18.996;2024-03-17T05:03:35;13.90;;;4.70;;
77880;SDS011;67077;50.298;18.996;2024-03-17T05:06:03;11.10;;;4.00;;
77880;SDS011;67077;50.298;18.996;2024-03-17T05:08:32;13.40;;;4.50;;
77880;SDS011;67077;50.298;18.996;2024-03-17T05:11:03;11.90;;;4.70;;
77880;SDS011;67077;50.298;18.996;2024-03-17T05:13:35;15.40;;;4.90;;
77880;SDS011;67077;50.298;18.996;2024-03-17T05:16:05;13.50;;;4.70;;
77880;SDS011;67077;50.298;18.996;2024-03-17T05:18:33;13.90;;;5.10;;
77880;SDS011;67077;50.298;18.996;2024-03-17T05:21:02;13.00;;;5.00;;
77880;SDS011;67077;50.298;18.996;2024-03-17T05:23:31;21.70;;;6.20;;
77880;SDS011;67077;50.298;18.996;2024-03-17T05:26:00;13.20;;;5.10;;
77880;SDS011;67077;50.298;18.996;2024-03-17T05:28:29;20.10;;;6.50;;
77880;SDS011;67077;50.298;18.996;2024-03-17T05:30:57;17.90;;;6.10;;
77880;SDS011;67077;50.298;18.996;2024-03-17T05:33:26;19.40;;;6.10;;
77880;SDS011;67077;50.298;18.996;2024-03-17T05:35:54;13.50;;;6.00;;
77880;SDS011;67077;50.298;18.996;2024-03-17T05:38:26;14.50;;;6.40;;
77880;SDS011;67077;50.298;18.996;2024-03-17T05:43:30;30.00;;;15.40;;
77880;SDS011;67077;50.298;18.996;2024-03-17T05:46:09;29.70;;;16.60;;
77880;SDS011;67077;50.298;18.996;2024-03-17T05:48:39;19.50;;;8.00;;
77880;SDS011;67077;50.298;18.996;2024-03-17T05:51:08;17.70;;;7.00;;
77880;SDS011;67077;50.298;18.996;2024-03-17T05:53:38;17.70;;;6.80;;
77880;SDS011;67077;50.298;18.996;2024-03-17T05:56:11;21.60;;;7.70;;
77880;SDS011;67077;50.298;18.996;2024-03-17T05:58:39;25.30;;;8.60;;
77880;SDS011;67077;50.298;18.996;2024-03-17T06:01:07;21.60;;;7.50;;
77880;SDS011;67077;50.298;18.996;2024-03-17T06:03:35;19.40;;;6.60;;
77880;SDS011;67077;50.298;18.996;2024-03-17T06:06:03;20.30;;;7.00;;
77880;SDS011;67077;50.298;18.996;2024-03-17T06:08:32;19.10;;;8.90;;
77880;SDS011;67077;50.298;18.996;2024-03-17T06:10:59;23.90;;;7.80;;
77880;SDS011;67077;50.298;18.996;2024-03-17T06:13:27;27.90;;;11.90;;
77880;SDS011;67077;50.298;18.996;2024-03-17T06:15:55;30.10;;;12.50;;
77880;SDS011;67077;50.298;18.996;2024-03-17T06:18:27;18.60;;;8.30;;
77880;SDS011;67077;50.298;18.996;2024-03-17T06:20:55;24.30;;;10.50;;
77880;SDS011;67077;50.298;18.996;2024-03-17T06:23:25;27.60;;;14.30;;
77880;SDS011;67077;50.298;18.996;2024-03-17T06:25:56;23.00;;;12.10;;
77880;SDS011;67077;50.298;18.996;2024-03-17T06:28:24;25.50;;;13.20;;
77880;SDS011;67077;50.298;18.996;2024-03-17T06:30:57;22.50;;;12.80;;
77880;SDS011;67077;50.298;18.996;2024-03-17T06:33:31;19.80;;;10.60;;
77880;SDS011;67077;50.298;18.996;2024-03-17T06:36:03;16.70;;;6.50;;
77880;SDS011;67077;50.298;18.996;2024-03-17T06:38:32;16.50;;;8.50;;
77880;SDS011;67077;50.298;18.996;2024-03-17T06:41:00;16.80;;;6.00;;
77880;SDS011;67077;50.298;18.996;2024-03-17T06:43:28;12.20;;;6.10;;
77880;SDS011;67077;50.298;18.996;2024-03-17T06:45:59;19.60;;;6.60;;
77880;SDS011;67077;50.298;18.996;2024-03-17T06:48:28;24.70;;;12.90;;
77880;SDS011;67077;50.298;18.996;2024-03-17T06:50:56;19.90;;;8.90;;
77880;SDS011;67077;50.298;18.996;2024-03-17T06:53:24;20.30;;;7.10;;
77880;SDS011;67077;50.298;18.996;2024-03-17T06:55:56;18.50;;;10.70;;
77880;SDS011;67077;50.298;18.996;2024-03-17T06:58:26;23.30;;;12.70;;
77880;SDS011;67077;50.298;18.996;2024-03-17T07:00:55;18.50;;;8.90;;
77880;SDS011;67077;50.298;18.996;2024-03-17T07:03:31;18.20;;;8.90;;
77880;SDS011;67077;50.298;18.996;2024-03-17T07:06:01;20.40;;;8.00;;
77880;SDS011;67077;50.298;18.996;2024-03-17T07:08:30;15.00;;;5.80;;
77880;SDS011;67077;50.298;18.996;2024-03-17T07:10:59;15.30;;;5.30;;
77880;SDS011;67077;50.298;18.996;2024-03-17T07:13:31;17.00;;;6.10;;
77880;SDS011;67077;50.298;18.996;2024-03-17T07:16:00;18.10;;;5.70;;
77880;SDS011;67077;50.298;18.996;2024-03-17T07:18:29;14.40;;;6.20;;
77880;SDS011;67077;50.298;18.996;2024-03-17T07:21:00;16.80;;;6.70;;
77880;SDS011;67077;50.298;18.996;2024-03-17T07:23:32;17.50;;;8.50;;
77880;SDS011;67077;50.298;18.996;2024-03-17T07:26:01;20.00;;;9.40;;
77880;SDS011;67077;50.298;18.996;2024-03-17T07:28:30;15.80;;;6.20;;
77880;SDS011;67077;50.298;18.996;2024-03-17T07:30:58;16.20;;;8.30;;
77880;SDS011;67077;50.298;18.996;2024-03-17T07:33:29;15.50;;;8.30;;
77880;SDS011;67077;50.298;18.996;2024-03-17T07:35:57;15.60;;;7.10;;
77880;SDS011;67077;50.298;18.996;2024-03-17T07:38:27;21.00;;;6.00;;
77880;SDS011;67077;50.298;18.996;2024-03-17T07:41:00;17.70;;;6.40;;
77880;SDS011;67077;50.298;18.996;2024-03-17T07:43:30;15.60;;;5.80;;
77880;SDS011;67077;50.298;18.996;2024-03-17T07:46:05;16.30;;;8.60;;
77880;SDS011;67077;50.298;18.996;2024-03-17T07:48:35;18.30;;;8.90;;
77880;SDS011;67077;50.298;18.996;2024-03-17T07:51:05;16.90;;;8.40;;
77880;SDS011;67077;50.298;18.996;2024-03-17T07:53:34;17.70;;;6.20;;
77880;SDS011;67077;50.298;18.996;2024-03-17T07:56:09;15.30;;;5.70;;
77880;SDS011;67077;50.298;18.996;2024-03-17T07:58:38;12.30;;;4.80;;
77880;SDS011;67077;50.298;18.996;2024-03-17T08:01:08;11.60;;;5.00;;
77880;SDS011;67077;50.298;18.996;2024-03-17T08:03:38;9.90;;;4.00;;
77880;SDS011;67077;50.298;18.996;2024-03-17T08:06:11;12.50;;;4.90;;
77880;SDS011;67077;50.298;18.996;2024-03-17T08:08:39;15.10;;;5.70;;
77880;SDS011;67077;50.298;18.996;2024-03-17T08:11:07;14.90;;;6.10;;
77880;SDS011;67077;50.298;18.996;2024-03-17T08:13:34;10.10;;;4.30;;
77880;SDS011;67077;50.298;18.996;2024-03-17T08:16:03;11.00;;;4.20;;
77880;SDS011;67077;50.298;18.996;2024-03-17T08:18:38;14.60;;;4.20;;
77880;SDS011;67077;50.298;18.996;2024-03-17T08:21:06;14.20;;;5.40;;
77880;SDS011;67077;50.298;18.996;2024-03-17T08:23:33;11.50;;;4.50;;
77880;SDS011;67077;50.298;18.996;2024-03-17T08:26:05;12.00;;;3.60;;
77880;SDS011;67077;50.298;18.996;2024-03-17T08:28:32;13.80;;;4.50;;
77880;SDS011;67077;50.298;18.996;2024-03-17T08:31:01;8.30;;;3.30;;
77880;SDS011;67077;50.298;18.996;2024-03-17T08:33:30;12.00;;;3.50;;
77880;SDS011;67077;50.298;18.996;2024-03-17T08:36:03;9.60;;;3.10;;
77880;SDS011;67077;50.298;18.996;2024-03-17T08:38:33;11.10;;;4.70;;
77880;SDS011;67077;50.298;18.996;2024-03-17T08:41:10;12.70;;;4.50;;
77880;SDS011;67077;50.298;18.996;2024-03-17T08:43:38;8.60;;;3.20;;
77880;SDS011;67077;50.298;18.996;2024-03-17T08:46:07;10.90;;;3.60;;
77880;SDS011;67077;50.298;18.996;2024-03-17T08:48:38;8.50;;;3.70;;
77880;SDS011;67077;50.298;18.996;2024-03-17T08:51:07;13.50;;;4.00;;
77880;SDS011;67077;50.298;18.996;2024-03-17T08:53:35;11.40;;;3.90;;
77880;SDS011;67077;50.298;18.996;2024-03-17T08:56:06;8.70;;;3.70;;
77880;SDS011;67077;50.298;18.996;2024-03-17T08:58:33;10.20;;;4.00;;
77880;SDS011;67077;50.298;18.996;2024-03-17T09:01:05;8.90;;;3.60;;
77880;SDS011;67077;50.298;18.996;2024-03-17T09:03:35;10.10;;;3.70;;
77880;SDS011;67077;50.298;18.996;2024-03-17T09:06:04;9.20;;;3.80;;
77880;SDS011;67077;50.298;18.996;2024-03-17T09:08:31;10.60;;;3.60;;
77880;SDS011;67077;50.298;18.996;2024-03-17T09:11:00;9.80;;;3.60;;
77880;SDS011;67077;50.298;18.996;2024-03-17T09:13:28;11.10;;;3.70;;
77880;SDS011;67077;50.298;18.996;2024-03-17T09:15:56;11.30;;;3.70;;
77880;SDS011;67077;50.298;18.996;2024-03-17T09:18:33;6.60;;;2.90;;
77880;SDS011;67077;50.298;18.996;2024-03-17T09:21:01;9.80;;;3.50;;
77880;SDS011;67077;50.298;18.996;2024-03-17T09:23:31;11.20;;;3.20;;
77880;SDS011;67077;50.298;18.996;2024-03-17T09:26:02;10.30;;;2.90;;
77880;SDS011;67077;50.298;18.996;2024-03-17T09:28:32;12.10;;;2.80;;
77880;SDS011;67077;50.298;18.996;2024-03-17T09:31:03;7.40;;;3.10;;
77880;SDS011;67077;50.298;18.996;2024-03-17T09:33:35;12.00;;;3.60;;
77880;SDS011;67077;50.298;18.996;2024-03-17T09:36:04;7.40;;;3.70;;
77880;SDS011;67077;50.298;18.996;2024-03-17T09:38:35;13.10;;;3.60;;
77880;SDS011;67077;50.298;18.996;2024-03-17T09:41:03;8.60;;;3.90;;
77880;SDS011;67077;50.298;18.996;2024-03-17T09:43:34;8.40;;;3.30;;
77880;SDS011;67077;50.298;18.996;2024-03-17T09:46:03;8.00;;;2.60;;
77880;SDS011;67077;50.298;18.996;2024-03-17T09:48:32;6.50;;;2.60;;
77880;SDS011;67077;50.298;18.996;2024-03-17T09:51:00;7.20;;;2.60;;
77880;SDS011;67077;50.298;18.996;2024-03-17T09:53:30;8.60;;;2.60;;
77880;SDS011;67077;50.298;18.996;2024-03-17T09:56:09;10.10;;;3.40;;
77880;SDS011;67077;50.298;18.996;2024-03-17T09:58:39;12.70;;;3.40;;
77880;SDS011;67077;50.298;18.996;2024-03-17T10:01:07;10.40;;;3.40;;
77880;SDS011;67077;50.298;18.996;2024-03-17T10:03:44;10.50;;;3.00;;
77880;SDS011;67077;50.298;18.996;2024-03-17T10:06:13;8.30;;;3.10;;
77880;SDS011;67077;50.298;18.996;2024-03-17T10:11:18;11.20;;;4.40;;
77880;SDS011;67077;50.298;18.996;2024-03-17T10:14:00;9.60;;;3.80;;
77880;SDS011;67077;50.298;18.996;2024-03-17T10:16:28;9.70;;;3.30;;
77880;SDS011;67077;50.298;18.996;2024-03-17T10:21:57;13.30;;;4.90;;
77880;SDS011;67077;50.298;18.996;2024-03-17T10:24:28;13.10;;;5.00;;
77880;SDS011;67077;50.298;18.996;2024-03-17T10:26:56;11.40;;;4.50;;
77880;SDS011;67077;50.298;18.996;2024-03-17T10:29:33;16.50;;;3.50;;
77880;SDS011;67077;50.298;18.996;2024-03-17T10:32:12;10.10;;;3.90;;
77880;SDS011;67077;50.298;18.996;2024-03-17T10:34:41;9.20;;;3.20;;
77880;SDS011;67077;50.298;18.996;2024-03-17T10:37:13;4.30;;;1.60;;
77880;SDS011;67077;50.298;18.996;2024-03-17T10:39:42;11.20;;;3.10;;
77880;SDS011;67077;50.298;18.996;2024-03-17T10:42:11;8.50;;;2.90;;
77880;SDS011;67077;50.298;18.996;2024-03-17T10:44:41;8.70;;;3.00;;
77880;SDS011;67077;50.298;18.996;2024-03-17T10:47:17;8.90;;;3.40;;
77880;SDS011;67077;50.298;18.996;2024-03-17T10:49:52;11.90;;;3.80;;
77880;SDS011;67077;50.298;18.996;2024-03-17T10:52:23;10.30;;;3.50;;
77880;SDS011;67077;50.298;18.996;2024-03-17T10:54:56;11.70;;;3.80;;
77880;SDS011;67077;50.298;18.996;2024-03-17T10:59:54;8.10;;;2.70;;
77880;SDS011;67077;50.298;18.996;2024-03-17T11:02:24;8.60;;;3.10;;
77880;SDS011;67077;50.298;18.996;2024-03-17T11:04:53;8.00;;;2.80;;
77880;SDS011;67077;50.298;18.996;2024-03-17T11:07:26;9.50;;;3.00;;
77880;SDS011;67077;50.298;18.996;2024-03-17T11:09:55;11.70;;;3.30;;
77880;SDS011;67077;50.298;18.996;2024-03-17T11:17:46;8.90;;;2.70;;
77880;SDS011;67077;50.298;18.996;2024-03-17T11:20:16;8.90;;;2.90;;
77880;SDS011;67077;50.298;18.996;2024-03-17T11:22:50;7.80;;;2.50;;
77880;SDS011;67077;50.298;18.996;2024-03-17T11:27:58;7.50;;;2.40;;
77880;SDS011;67077;50.298;18.996;2024-03-17T11:41:43;5.60;;;2.40;;
77880;SDS011;67077;50.298;18.996;2024-03-17T11:49:34;4.70;;;2.00;;
77880;SDS011;67077;50.298;18.996;2024-03-17T11:52:10;7.10;;;2.30;;
77880;SDS011;67077;50.298;18.996;2024-03-17T11:54:44;11.10;;;3.00;;
77880;SDS011;67077;50.298;18.996;2024-03-17T11:57:22;6.10;;;2.60;;
77880;SDS011;67077;50.298;18.996;2024-03-17T11:59:51;6.90;;;2.10;;
77880;SDS011;67077;50.298;18.996;2024-03-17T12:02:21;8.90;;;2.30;;
77880;SDS011;67077;50.298;18.996;2024-03-17T12:04:57;6.90;;;2.00;;
77880;SDS011;67077;50.298;18.996;2024-03-17T12:07:26;8.50;;;2.60;;
77880;SDS011;67077;50.298;18.996;2024-03-17T12:09:55;8.90;;;2.40;;
77880;SDS011;67077;50.298;18.996;2024-03-17T12:12:25;5.50;;;2.20;;
77880;SDS011;67077;50.298;18.996;2024-03-17T12:15:10;7.70;;;2.70;;
77880;SDS011;67077;50.298;18.996;2024-03-17T12:17:45;7.10;;;3.10;;
77880;SDS011;67077;50.298;18.996;2024-03-17T12:20:16;10.00;;;3.10;;
77880;SDS011;67077;50.298;18.996;2024-03-17T12:22:45;9.50;;;2.60;;
77880;SDS011;67077;50.298;18.996;2024-03-17T12:25:18;8.20;;;2.40;;
77880;SDS011;67077;50.298;18.996;2024-03-17T12:27:47;6.10;;;2.50;;
77880;SDS011;67077;50.298;18.996;2024-03-17T12:30:15;9.70;;;3.10;;
77880;SDS011;67077;50.298;18.996;2024-03-17T12:32:45;4.90;;;2.30;;
77880;SDS011;67077;50.298;18.996;2024-03-17T12:35:14;6.60;;;2.70;;
77880;SDS011;67077;50.298;18.996;2024-03-17T12:37:44;6.80;;;2.40;;
77880;SDS011;67077;50.298;18.996;2024-03-17T12:40:17;7.20;;;2.40;;
77880;SDS011;67077;50.298;18.996;2024-03-17T12:42:47;5.20;;;2.20;;
77880;SDS011;67077;50.298;18.996;2024-03-17T12:45:19;6.60;;;2.40;;
77880;SDS011;67077;50.298;18.996;2024-03-17T12:47:49;9.30;;;2.80;;
77880;SDS011;67077;50.298;18.996;2024-03-17T12:50:18;6.00;;;2.70;;
77880;SDS011;67077;50.298;18.996;2024-03-17T12:52:53;6.90;;;2.80;;
77880;SDS011;67077;50.298;18.996;2024-03-17T12:55:25;6.90;;;2.70;;
77880;SDS011;67077;50.298;18.996;2024-03-17T12:58:11;5.90;;;2.60;;
77880;SDS011;67077;50.298;18.996;2024-03-17T13:01:01;7.70;;;2.30;;
77880;SDS011;67077;50.298;18.996;2024-03-17T13:03:31;6.40;;;2.30;;
77880;SDS011;67077;50.298;18.996;2024-03-17T13:06:04;6.70;;;2.40;;
77880;SDS011;67077;50.298;18.996;2024-03-17T13:08:35;5.70;;;2.30;;
77880;SDS011;67077;50.298;18.996;2024-03-17T13:11:03;7.00;;;3.40;;
77880;SDS011;67077;50.298;18.996;2024-03-17T13:13:31;7.00;;;3.00;;
77880;SDS011;67077;50.298;18.996;2024-03-17T13:15:59;11.00;;;3.40;;
77880;SDS011;67077;50.298;18.996;2024-03-17T13:18:26;6.40;;;2.70;;
77880;SDS011;67077;50.298;18.996;2024-03-17T13:20:54;8.60;;;2.60;;
77880;SDS011;67077;50.298;18.996;2024-03-17T13:23:25;5.30;;;2.40;;
77880;SDS011;67077;50.298;18.996;2024-03-17T13:25:52;7.70;;;3.10;;
77880;SDS011;67077;50.298;18.996;2024-03-17T13:28:20;7.70;;;2.80;;
77880;SDS011;67077;50.298;18.996;2024-03-17T13:30:48;9.20;;;3.00;;
77880;SDS011;67077;50.298;18.996;2024-03-17T13:33:15;8.50;;;3.00;;
77880;SDS011;67077;50.298;18.996;2024-03-17T13:35:43;8.60;;;2.90;;
77880;SDS011;67077;50.298;18.996;2024-03-17T13:38:11;6.90;;;2.40;;
77880;SDS011;67077;50.298;18.996;2024-03-17T13:40:39;7.00;;;2.30;;
77880;SDS011;67077;50.298;18.996;2024-03-17T13:43:07;6.60;;;2.30;;
77880;SDS011;67077;50.298;18.996;2024-03-17T13:45:40;7.20;;;2.50;;
77880;SDS011;67077;50.298;18.996;2024-03-17T13:48:10;5.40;;;2.10;;
77880;SDS011;67077;50.298;18.996;2024-03-17T13:50:38;9.70;;;2.60;;
77880;SDS011;67077;50.298;18.996;2024-03-17T13:53:08;9.60;;;2.80;;
77880;SDS011;67077;50.298;18.996;2024-03-17T13:55:35;5.80;;;2.50;;
77880;SDS011;67077;50.298;18.996;2024-03-17T13:58:03;7.20;;;2.60;;
77880;SDS011;67077;50.298;18.996;2024-03-17T14:00:32;6.20;;;2.10;;
77880;SDS011;67077;50.298;18.996;2024-03-17T14:03:03;5.70;;;2.00;;
77880;SDS011;67077;50.298;18.996;2024-03-17T14:05:31;5.20;;;2.00;;
77880;SDS011;67077;50.298;18.996;2024-03-17T14:08:01;7.10;;;2.10;;
77880;SDS011;67077;50.298;18.996;2024-03-17T14:10:29;7.40;;;2.40;;
77880;SDS011;67077;50.298;18.996;2024-03-17T14:12:57;7.10;;;2.90;;
77880;SDS011;67077;50.298;18.996;2024-03-17T14:15:24;9.70;;;2.80;;
77880;SDS011;67077;50.298;18.996;2024-03-17T14:17:52;7.30;;;3.10;;
77880;SDS011;67077;50.298;18.996;2024-03-17T14:20:20;8.10;;;3.30;;
77880;SDS011;67077;50.298;18.996;2024-03-17T14:22:47;8.60;;;3.70;;
77880;SDS011;67077;50.298;18.996;2024-03-17T14:25:15;6.80;;;3.10;;
77880;SDS011;67077;50.298;18.996;2024-03-17T14:27:48;10.70;;;3.20;;
77880;SDS011;67077;50.298;18.996;2024-03-17T14:30:17;7.40;;;2.70;;
77880;SDS011;67077;50.298;18.996;2024-03-17T14:32:47;7.60;;;2.70;;
77880;SDS011;67077;50.298;18.996;2024-03-17T14:35:16;8.40;;;3.00;;
77880;SDS011;67077;50.298;18.996;2024-03-17T14:37:45;9.00;;;2.40;;
77880;SDS011;67077;50.298;18.996;2024-03-17T14:40:16;6.50;;;2.60;;
77880;SDS011;67077;50.298;18.996;2024-03-17T14:42:55;7.60;;;2.70;;
77880;SDS011;67077;50.298;18.996;2024-03-17T14:45:23;6.60;;;2.90;;
77880;SDS011;67077;50.298;18.996;2024-03-17T14:47:50;5.70;;;2.70;;
77880;SDS011;67077;50.298;18.996;2024-03-17T14:50:19;7.70;;;2.70;;
77880;SDS011;67077;50.298;18.996;2024-03-17T14:52:48;7.30;;;2.00;;
77880;SDS011;67077;50.298;18.996;2024-03-17T14:55:15;4.90;;;2.20;;
77880;SDS011;67077;50.298;18.996;2024-03-17T14:57:44;6.90;;;2.60;;
77880;SDS011;67077;50.298;18.996;2024-03-17T15:00:12;8.10;;;2.80;;
77880;SDS011;67077;50.298;18.996;2024-03-17T15:02:43;6.70;;;2.30;;
77880;SDS011;67077;50.298;18.996;2024-03-17T15:05:13;8.00;;;2.20;;
77880;SDS011;67077;50.298;18.996;2024-03-17T15:07:50;9.10;;;2.80;;
77880;SDS011;67077;50.298;18.996;2024-03-17T15:10:18;5.30;;;2.50;;
77880;SDS011;67077;50.298;18.996;2024-03-17T15:12:48;7.80;;;3.30;;